Terminal Aerodrome Forecast
Issued by NWS

Home | Current Version | Previous Version | Text Only | Print | Product List | Glossary On
Versions: 1 2 3 4 5 6 7 8 9 10 11 12 13 14 15 16 17 18 19 20 21 22 23 24
829
FTUS46 KSEW 110520
TAFOLM
TAF
KOLM 110520Z 1106/1206 00000KT P6SM BKN200
      TEMPO 1106/1110 2SM BR
     FM111000 00000KT 2SM BR BKN003 BKN050
     FM111600 VRB04KT 5SM BR SCT007 OVC050
     FM112100 VRB04KT 5SM -RA BR SCT010 OVC050=

USA.gov is the U.S. government's official web portal to all federal, state and local government web resources and services.